Terminal Aerodrome Forecast
Issued by NWS Topeka, KS

Home | Current Version | Previous Version | Graphics & Text | Print | Product List | Glossary On
Versions: 1 2 3 4 5 6 7 8 9 10 11 12 13 14
327
FTUS43 KTOP 060524
TAFTOP
TAF
KTOP 060524Z 0606/0706 33013G22KT P6SM SCT030 BKN080
     FM061100 32012G18KT P6SM SKC
     FM062300 32004KT P6SM BKN150=

USA.gov is the U.S. government's official web portal to all federal, state and local government web resources and services.